createdAt,value
2018-08-30T00:01:22.199Z,2.63
2018-08-30T00:03:49.494Z,2.27
2018-08-30T00:06:16.730Z,2.43
2018-08-30T00:08:43.987Z,2.70
2018-08-30T00:11:11.256Z,3.00
2018-08-30T00:13:38.611Z,2.50
2018-08-30T00:16:05.837Z,2.20
2018-08-30T00:18:33.214Z,2.27
2018-08-30T00:21:00.575Z,2.57
2018-08-30T00:23:27.842Z,1.93
2018-08-30T00:25:55.080Z,2.10
2018-08-30T00:28:22.404Z,3.00
2018-08-30T00:30:49.724Z,2.03
2018-08-30T00:33:16.951Z,3.27
2018-08-30T00:35:44.242Z,2.13
2018-08-30T00:38:11.512Z,2.43
2018-08-30T00:40:38.864Z,2.23
2018-08-30T00:43:06.240Z,2.83
2018-08-30T00:45:33.483Z,2.00
2018-08-30T00:48:00.824Z,1.90
2018-08-30T00:50:28.083Z,2.13
2018-08-30T00:52:55.363Z,3.00
2018-08-30T00:55:22.660Z,2.13
2018-08-30T00:57:49.954Z,2.67
2018-08-30T01:00:17.227Z,2.73
2018-08-30T01:02:44.527Z,2.17
2018-08-30T01:05:11.751Z,1.70
2018-08-30T01:07:39.066Z,1.83
2018-08-30T01:10:06.425Z,1.67
2018-08-30T01:12:36.607Z,1.77
2018-08-30T01:15:04.069Z,2.00
2018-08-30T01:17:31.374Z,2.20
2018-08-30T01:19:58.765Z,2.17
2018-08-30T01:22:26.170Z,2.03
2018-08-30T01:24:53.459Z,2.20
2018-08-30T01:27:20.725Z,1.70
2018-08-30T01:29:48.044Z,2.30
2018-08-30T01:32:15.322Z,1.83
2018-08-30T01:34:42.668Z,1.43
2018-08-30T01:37:10.030Z,2.50
2018-08-30T01:39:37.297Z,1.90
2018-08-30T01:42:04.611Z,2.07
2018-08-30T01:44:31.918Z,1.97
2018-08-30T01:46:59.159Z,2.23
2018-08-30T01:49:26.482Z,3.00
2018-08-30T01:51:53.833Z,2.50
2018-08-30T01:54:21.122Z,3.73
2018-08-30T01:56:48.439Z,4.03
2018-08-30T01:59:15.770Z,2.97
2018-08-30T02:01:43.119Z,3.13
2018-08-30T02:04:10.404Z,2.90
2018-08-30T02:06:37.723Z,2.60
2018-08-30T02:09:05.315Z,2.60
2018-08-30T02:11:32.575Z,2.10
2018-08-30T02:13:59.845Z,2.10
2018-08-30T02:16:27.247Z,2.20
2018-08-30T02:18:54.537Z,1.83
2018-08-30T02:21:21.778Z,2.40
2018-08-30T02:23:49.048Z,3.50
2018-08-30T02:26:16.333Z,3.57
2018-08-30T02:28:43.573Z,3.00
2018-08-30T02:31:10.937Z,3.07
2018-08-30T02:33:38.224Z,3.10
2018-08-30T02:36:05.583Z,2.77
2018-08-30T02:38:32.863Z,2.73
2018-08-30T02:41:00.177Z,3.03
2018-08-30T02:43:27.401Z,3.20
2018-08-30T02:45:54.697Z,4.23
2018-08-30T02:48:21.984Z,4.30
2018-08-30T02:50:49.279Z,4.03
2018-08-30T02:53:16.573Z,4.37
2018-08-30T02:55:43.841Z,5.00
2018-08-30T02:58:11.130Z,5.20
2018-08-30T03:00:38.543Z,4.80
2018-08-30T03:03:05.908Z,5.23
2018-08-30T03:05:33.242Z,4.90
2018-08-30T03:08:00.549Z,4.77
2018-08-30T03:10:27.806Z,4.17
2018-08-30T03:12:55.282Z,4.53
2018-08-30T03:15:22.572Z,4.63
2018-08-30T03:17:49.887Z,4.17
2018-08-30T03:20:17.178Z,4.70
2018-08-30T03:22:44.436Z,5.30
2018-08-30T03:25:11.837Z,5.90
2018-08-30T03:27:39.039Z,5.70
2018-08-30T03:30:07.435Z,5.93
2018-08-30T03:32:34.859Z,4.83
2018-08-30T03:35:02.134Z,5.47
2018-08-30T03:37:29.468Z,5.70
2018-08-30T03:39:56.918Z,5.60
2018-08-30T03:42:24.186Z,5.10
2018-08-30T03:44:51.464Z,4.03
2018-08-30T03:47:18.710Z,4.37
2018-08-30T03:49:45.991Z,4.70
2018-08-30T03:52:21.067Z,4.83
2018-08-30T03:54:48.314Z,4.17
2018-08-30T03:57:15.636Z,4.00
2018-08-30T03:59:42.966Z,4.27
2018-08-30T04:02:10.327Z,3.77
2018-08-30T04:04:37.613Z,3.37
2018-08-30T04:07:05.152Z,3.50
2018-08-30T04:09:32.546Z,3.40
2018-08-30T04:11:59.805Z,4.53
2018-08-30T04:14:27.020Z,4.40
2018-08-30T04:16:54.340Z,3.77
2018-08-30T04:19:27.762Z,3.67
2018-08-30T04:21:55.119Z,3.70
2018-08-30T04:24:22.288Z,3.87
2018-08-30T04:26:49.570Z,4.40
2018-08-30T04:29:16.888Z,3.77
2018-08-30T04:31:44.127Z,3.00
2018-08-30T04:34:11.411Z,2.87
2018-08-30T04:36:38.683Z,3.20
2018-08-30T04:39:07.756Z,3.33
2018-08-30T04:41:35.025Z,3.60
2018-08-30T04:44:02.591Z,3.40
2018-08-30T04:46:29.861Z,2.80
2018-08-30T04:48:57.113Z,3.77
2018-08-30T04:51:24.406Z,3.33
2018-08-30T04:53:51.668Z,3.13
2018-08-30T04:56:18.986Z,3.10
2018-08-30T04:58:46.233Z,3.03
2018-08-30T05:01:13.503Z,3.60
2018-08-30T05:03:40.834Z,3.97
2018-08-30T05:06:08.418Z,4.10
2018-08-30T05:08:35.658Z,5.17
2018-08-30T05:11:02.946Z,6.07
2018-08-30T05:13:30.203Z,6.83
2018-08-30T05:15:57.485Z,6.50
2018-08-30T05:18:24.767Z,7.90
2018-08-30T05:20:52.079Z,7.70
2018-08-30T05:23:19.276Z,7.50
2018-08-30T05:25:46.525Z,6.47
2018-08-30T05:28:13.746Z,6.83
2018-08-30T05:30:41.002Z,6.73
2018-08-30T05:33:08.294Z,7.17
2018-08-30T05:35:35.602Z,6.90
2018-08-30T05:38:02.852Z,6.40
2018-08-30T05:40:30.121Z,7.07
2018-08-30T05:42:57.478Z,6.40
2018-08-30T05:45:24.895Z,8.37
2018-08-30T05:47:52.163Z,7.70
2018-08-30T05:50:19.475Z,6.90
2018-08-30T05:52:46.713Z,7.67
2018-08-30T05:55:14.111Z,7.00
2018-08-30T05:57:41.190Z,6.63
2018-08-30T06:00:08.534Z,7.70
2018-08-30T06:02:35.866Z,6.53
2018-08-30T06:05:03.212Z,6.80
2018-08-30T06:07:30.409Z,7.00
2018-08-30T06:09:57.667Z,6.10
2018-08-30T06:12:25.486Z,6.07
2018-08-30T06:14:53.031Z,5.90
2018-08-30T06:17:20.326Z,5.80
2018-08-30T06:19:47.579Z,7.00
2018-08-30T06:22:14.862Z,6.50
2018-08-30T06:24:42.143Z,6.43
2018-08-30T06:27:09.437Z,6.97
2018-08-30T06:29:36.667Z,6.63
2018-08-30T06:32:04.019Z,5.57
2018-08-30T06:34:31.367Z,6.60
2018-08-30T06:36:58.610Z,7.27
2018-08-30T06:39:25.920Z,5.73
2018-08-30T06:41:53.165Z,7.23
2018-08-30T06:44:20.418Z,6.60
2018-08-30T06:46:47.738Z,6.00
2018-08-30T06:49:15.102Z,5.77
2018-08-30T06:51:42.669Z,6.93
2018-08-30T06:54:10.064Z,6.97
2018-08-30T06:56:37.360Z,6.07
2018-08-30T06:59:04.809Z,5.07
2018-08-30T07:01:32.069Z,5.53
2018-08-30T07:03:59.425Z,5.03
2018-08-30T07:06:26.872Z,5.80
2018-08-30T07:08:54.340Z,4.63
2018-08-30T07:11:21.619Z,5.53
2018-08-30T07:13:48.873Z,4.83
2018-08-30T07:16:16.263Z,5.60
2018-08-30T07:18:43.533Z,4.63
2018-08-30T07:21:42.130Z,4.10
2018-08-30T07:24:09.371Z,3.70
2018-08-30T07:26:36.663Z,3.93
2018-08-30T07:29:04.056Z,3.40
2018-08-30T07:31:31.360Z,3.10
2018-08-30T07:33:58.650Z,2.83
2018-08-30T07:36:25.932Z,3.20
2018-08-30T07:38:53.194Z,3.10
2018-08-30T07:41:20.464Z,3.53
2018-08-30T07:43:47.738Z,3.00
2018-08-30T07:46:15.113Z,3.77
2018-08-30T07:48:42.441Z,3.77
2018-08-30T07:51:09.739Z,4.60
2018-08-30T07:53:36.983Z,4.07
2018-08-30T07:56:04.407Z,3.97
2018-08-30T07:58:31.660Z,4.70
2018-08-30T08:00:58.882Z,4.20
2018-08-30T08:03:26.115Z,5.10
2018-08-30T08:05:53.498Z,5.63
2018-08-30T08:08:20.742Z,4.50
2018-08-30T08:10:48.061Z,4.20
2018-08-30T08:13:15.325Z,5.00
2018-08-30T08:15:42.711Z,4.03
2018-08-30T08:18:10.054Z,4.03
2018-08-30T08:20:37.370Z,4.20
2018-08-30T08:23:04.707Z,3.90
2018-08-30T08:25:32.060Z,4.27
2018-08-30T08:27:59.485Z,3.20
2018-08-30T08:30:26.775Z,3.40
2018-08-30T08:32:54.077Z,4.00
2018-08-30T08:35:21.282Z,4.30
2018-08-30T08:37:48.654Z,3.97
2018-08-30T08:40:15.958Z,3.80
2018-08-30T08:42:43.387Z,3.27
2018-08-30T08:45:10.702Z,4.50
2018-08-30T08:47:38.015Z,4.30
2018-08-30T08:50:05.315Z,3.73
2018-08-30T08:52:32.666Z,4.37
2018-08-30T08:55:00.216Z,4.77
2018-08-30T08:57:27.674Z,4.03
2018-08-30T08:59:55.059Z,3.13
2018-08-30T09:02:22.354Z,4.30
2018-08-30T09:04:49.624Z,3.10
2018-08-30T09:07:17.042Z,4.20
2018-08-30T09:09:44.341Z,4.00
2018-08-30T09:12:11.634Z,4.63
2018-08-30T09:14:39.024Z,4.37
2018-08-30T09:17:06.376Z,3.57
2018-08-30T09:19:33.703Z,3.27
2018-08-30T09:22:01.008Z,3.53
2018-08-30T09:24:28.250Z,3.77
2018-08-30T09:26:55.708Z,4.07
2018-08-30T09:29:22.805Z,3.93
2018-08-30T09:31:50.132Z,4.50
2018-08-30T09:34:17.375Z,4.37
2018-08-30T09:36:44.690Z,3.27
2018-08-30T09:39:11.913Z,4.33
2018-08-30T09:41:39.278Z,3.87
2018-08-30T09:44:06.610Z,3.67
2018-08-30T09:46:33.924Z,3.87
2018-08-30T09:49:01.804Z,4.10
2018-08-30T09:51:28.992Z,4.23
2018-08-30T09:53:56.344Z,3.97
2018-08-30T09:56:23.607Z,3.90
2018-08-30T09:58:50.918Z,3.80
2018-08-30T10:01:23.930Z,3.50
2018-08-30T10:03:51.250Z,3.43
2018-08-30T10:06:18.525Z,3.23
2018-08-30T10:08:45.792Z,3.77
2018-08-30T10:11:13.034Z,3.90
2018-08-30T10:13:40.253Z,4.03
2018-08-30T10:16:07.586Z,3.77
2018-08-30T10:18:34.920Z,3.63
2018-08-30T10:21:02.162Z,4.10
2018-08-30T10:23:29.475Z,4.10
2018-08-30T10:25:56.740Z,3.37
2018-08-30T10:28:24.090Z,4.03
2018-08-30T10:30:51.331Z,3.83
2018-08-30T10:33:18.894Z,4.13
2018-08-30T10:35:46.226Z,4.33
2018-08-30T10:38:13.632Z,4.30
2018-08-30T10:40:40.872Z,4.80
2018-08-30T10:43:08.178Z,4.20
2018-08-30T10:45:35.484Z,4.03
2018-08-30T10:48:02.765Z,4.47
2018-08-30T10:50:30.134Z,4.47
2018-08-30T10:52:57.444Z,4.07
2018-08-30T10:55:24.755Z,3.80
2018-08-30T10:57:52.394Z,5.20
2018-08-30T11:00:19.679Z,3.90
2018-08-30T11:02:47.085Z,4.37
2018-08-30T11:05:14.434Z,4.03
2018-08-30T11:07:41.830Z,3.80
2018-08-30T11:10:09.173Z,4.80
2018-08-30T11:12:36.769Z,4.83
2018-08-30T11:15:04.060Z,5.30
2018-08-30T11:17:31.308Z,5.20
2018-08-30T11:19:58.614Z,3.83
2018-08-30T11:22:26.057Z,5.53
2018-08-30T11:24:53.387Z,11.57
2018-08-30T11:27:20.706Z,4.70
2018-08-30T11:29:47.976Z,4.80
2018-08-30T11:32:15.258Z,4.40
2018-08-30T11:34:42.515Z,4.33
2018-08-30T11:37:09.709Z,4.60
2018-08-30T11:39:36.968Z,4.10
2018-08-30T11:42:05.050Z,3.87
2018-08-30T11:44:32.332Z,4.50
2018-08-30T11:46:59.638Z,4.33
2018-08-30T11:49:26.915Z,4.03
2018-08-30T11:51:54.250Z,6.20
2018-08-30T11:54:21.630Z,3.70
2018-08-30T11:56:48.930Z,4.30
2018-08-30T11:59:16.207Z,4.63
2018-08-30T12:01:43.539Z,4.77
2018-08-30T12:04:11.059Z,4.90
2018-08-30T12:06:38.413Z,5.50
2018-08-30T12:09:08.070Z,5.63
2018-08-30T12:11:36.050Z,4.93
2018-08-30T12:14:03.306Z,6.37
2018-08-30T12:16:30.750Z,4.87
2018-08-30T12:18:58.078Z,3.70
2018-08-30T12:21:25.400Z,4.17
2018-08-30T12:23:52.647Z,4.70
2018-08-30T12:26:20.061Z,5.17
2018-08-30T12:28:47.545Z,5.10
2018-08-30T12:31:14.788Z,5.23
2018-08-30T12:33:42.173Z,5.67
2018-08-30T12:36:09.481Z,5.33
2018-08-30T12:38:36.728Z,5.63
2018-08-30T12:41:04.039Z,4.83
2018-08-30T12:43:31.497Z,4.90
2018-08-30T12:45:58.718Z,5.00
2018-08-30T12:48:25.989Z,5.50
2018-08-30T12:50:53.358Z,5.00
2018-08-30T12:53:20.692Z,5.13
2018-08-30T12:55:48.119Z,5.57
2018-08-30T12:58:15.628Z,5.50
2018-08-30T13:00:42.737Z,5.10
2018-08-30T13:03:10.032Z,5.27
2018-08-30T13:05:37.524Z,4.97
2018-08-30T13:08:04.762Z,6.47
2018-08-30T13:10:32.333Z,7.27
2018-08-30T13:12:59.537Z,5.77
2018-08-30T13:15:26.952Z,7.17
2018-08-30T13:17:54.150Z,6.93
2018-08-30T13:20:21.518Z,6.40
2018-08-30T13:22:48.874Z,7.27
2018-08-30T13:25:16.261Z,6.47
2018-08-30T13:27:43.537Z,10.07
2018-08-30T13:30:10.928Z,7.60
2018-08-30T13:32:38.198Z,8.70
2018-08-30T13:35:05.522Z,6.80
2018-08-30T13:37:33.037Z,5.60
2018-08-30T13:40:00.345Z,5.10
2018-08-30T13:42:28.273Z,6.43
2018-08-30T13:44:55.800Z,6.40
2018-08-30T13:47:22.966Z,6.93
2018-08-30T13:49:50.098Z,7.17
2018-08-30T13:52:17.667Z,8.47
2018-08-30T13:54:44.884Z,6.93
2018-08-30T13:57:12.364Z,6.20
2018-08-30T13:59:39.613Z,5.20
2018-08-30T14:02:06.915Z,7.30
2018-08-30T14:04:34.125Z,5.67
2018-08-30T14:07:01.332Z,6.87
2018-08-30T14:09:28.789Z,6.03
2018-08-30T14:11:56.172Z,6.83
2018-08-30T14:14:23.374Z,5.73
2018-08-30T14:16:50.494Z,6.37
2018-08-30T14:19:17.873Z,6.07
2018-08-30T14:21:45.420Z,6.27
2018-08-30T14:24:12.878Z,6.33
2018-08-30T14:26:40.220Z,6.70
2018-08-30T14:29:07.672Z,6.50
2018-08-30T14:31:34.947Z,6.90
2018-08-30T14:34:02.284Z,6.60
2018-08-30T14:36:29.558Z,6.57
2018-08-30T14:38:56.866Z,6.23
2018-08-30T14:41:24.523Z,5.93
2018-08-30T14:43:51.725Z,5.87
2018-08-30T14:46:18.952Z,7.40
2018-08-30T14:48:46.283Z,6.30
2018-08-30T14:51:13.612Z,5.63
2018-08-30T14:53:41.167Z,5.20
2018-08-30T14:56:08.453Z,4.77
2018-08-30T14:58:35.720Z,4.23
2018-08-30T15:01:03.042Z,4.20
2018-08-30T15:03:30.308Z,4.27
2018-08-30T15:05:59.717Z,4.30
2018-08-30T15:08:27.012Z,5.03
2018-08-30T15:10:54.412Z,4.17
2018-08-30T15:13:21.641Z,4.30
2018-08-30T15:15:49.006Z,4.10
2018-08-30T15:18:16.309Z,4.60
2018-08-30T15:20:43.601Z,3.73
2018-08-30T15:23:10.949Z,5.20
2018-08-30T15:25:38.338Z,4.20
2018-08-30T15:28:06.849Z,5.60
2018-08-30T15:30:34.107Z,4.80
2018-08-30T15:33:01.462Z,5.17
2018-08-30T15:35:28.968Z,5.80
2018-08-30T15:37:56.256Z,5.23
2018-08-30T15:40:23.581Z,4.60
2018-08-30T15:42:50.900Z,5.67
2018-08-30T15:45:18.340Z,5.27
2018-08-30T15:47:45.633Z,5.67
2018-08-30T15:50:12.997Z,6.00
2018-08-30T15:52:40.408Z,6.30
2018-08-30T15:55:07.646Z,5.90
2018-08-30T15:57:35.001Z,6.07
2018-08-30T16:00:02.443Z,6.67
2018-08-30T16:02:29.842Z,4.83
2018-08-30T16:04:57.133Z,5.30
2018-08-30T16:07:24.397Z,5.23
2018-08-30T16:09:51.736Z,4.30
2018-08-30T16:12:19.001Z,5.67
2018-08-30T16:14:46.308Z,4.87
2018-08-30T16:17:14.638Z,5.20
2018-08-30T16:19:42.130Z,5.63
2018-08-30T16:22:09.390Z,5.03
2018-08-30T16:24:36.703Z,5.57
2018-08-30T16:27:04.015Z,5.27
2018-08-30T16:29:32.067Z,4.30
2018-08-30T16:31:59.285Z,4.20
2018-08-30T16:34:26.664Z,5.37
2018-08-30T16:36:53.849Z,5.23
2018-08-30T16:39:21.143Z,6.63
2018-08-30T16:41:48.489Z,8.87
2018-08-30T16:44:16.046Z,6.87
2018-08-30T16:46:43.363Z,6.20
2018-08-30T16:49:10.655Z,5.40
2018-08-30T16:51:38.025Z,6.40
2018-08-30T16:54:05.305Z,6.40
2018-08-30T16:56:32.650Z,6.60
2018-08-30T16:58:59.951Z,7.23
2018-08-30T17:01:27.244Z,6.83
2018-08-30T17:03:54.511Z,6.70
2018-08-30T17:06:21.866Z,6.73
2018-08-30T17:08:49.209Z,8.50
2018-08-30T17:11:16.431Z,7.40
2018-08-30T17:13:43.710Z,6.57
2018-08-30T17:16:10.992Z,7.70
2018-08-30T17:18:38.736Z,7.77
2018-08-30T17:21:06.077Z,9.63
2018-08-30T17:23:33.445Z,8.40
2018-08-30T17:26:00.659Z,8.60
2018-08-30T17:28:28.035Z,8.10
2018-08-30T17:30:55.394Z,7.90
2018-08-30T17:33:23.322Z,8.97
2018-08-30T17:35:50.686Z,8.60
2018-08-30T17:38:18.017Z,7.90
2018-08-30T17:40:45.389Z,8.20
2018-08-30T17:43:12.618Z,7.47
2018-08-30T17:45:39.916Z,8.73
2018-08-30T17:48:07.180Z,7.93
2018-08-30T17:50:35.233Z,8.10
2018-08-30T17:53:02.396Z,7.07
2018-08-30T17:55:29.652Z,7.93
2018-08-30T17:57:57.088Z,7.50
2018-08-30T18:00:24.407Z,7.33
2018-08-30T18:02:51.682Z,8.30
2018-08-30T18:05:19.114Z,9.33
2018-08-30T18:07:46.314Z,8.53
2018-08-30T18:10:13.674Z,8.07
2018-08-30T18:12:40.951Z,8.13
2018-08-30T18:15:10.066Z,8.40
2018-08-30T18:17:37.366Z,7.60
2018-08-30T18:20:05.242Z,7.87
2018-08-30T18:22:32.596Z,7.80
2018-08-30T18:24:59.960Z,7.50
2018-08-30T18:27:27.219Z,8.20
2018-08-30T18:29:54.503Z,7.40
2018-08-30T18:32:21.881Z,8.07
2018-08-30T18:34:49.155Z,9.00
2018-08-30T18:37:16.500Z,9.10
2018-08-30T18:39:43.822Z,8.03
2018-08-30T18:42:11.220Z,8.43
2018-08-30T18:44:38.444Z,8.40
2018-08-30T18:47:05.846Z,7.63
2018-08-30T18:49:33.253Z,8.10
2018-08-30T18:52:00.518Z,7.27
2018-08-30T18:54:27.781Z,9.23
2018-08-30T18:56:55.091Z,8.80
2018-08-30T18:59:22.433Z,8.50
2018-08-30T19:01:49.910Z,9.90
2018-08-30T19:04:17.182Z,8.30
2018-08-30T19:06:44.508Z,8.10
2018-08-30T19:09:12.269Z,9.30
2018-08-30T19:11:40.040Z,7.83
2018-08-30T19:14:07.480Z,8.50
2018-08-30T19:16:40.562Z,8.70
2018-08-30T19:19:12.751Z,8.10
2018-08-30T19:21:40.121Z,9.17
2018-08-30T19:24:11.966Z,7.40
2018-08-30T19:26:39.263Z,8.20
2018-08-30T19:29:06.743Z,8.83
2018-08-30T19:31:34.095Z,7.60
2018-08-30T19:34:01.490Z,8.73
2018-08-30T19:36:29.915Z,8.50
2018-08-30T19:38:57.298Z,8.67
2018-08-30T19:41:24.601Z,8.73
2018-08-30T19:43:52.615Z,8.10
2018-08-30T19:46:20.859Z,8.50
2018-08-30T19:48:48.146Z,9.37
2018-08-30T19:51:15.485Z,9.20
2018-08-30T19:53:42.782Z,10.03
2018-08-30T19:56:11.095Z,9.60
2018-08-30T19:58:38.405Z,9.60
2018-08-30T20:01:05.817Z,11.00
2018-08-30T20:03:33.191Z,9.13
2018-08-30T20:06:02.366Z,8.87
2018-08-30T20:08:29.737Z,9.60
2018-08-30T20:10:57.043Z,8.10
2018-08-30T20:13:24.359Z,8.50
2018-08-30T20:15:52.479Z,8.00
2018-08-30T20:18:19.641Z,9.27
2018-08-30T20:20:47.012Z,8.93
2018-08-30T20:23:14.379Z,8.60
2018-08-30T20:25:41.673Z,8.90
2018-08-30T20:28:08.895Z,8.33
2018-08-30T20:30:36.290Z,9.53
2018-08-30T20:33:03.817Z,7.83
2018-08-30T20:35:31.092Z,7.33
2018-08-30T20:37:58.364Z,7.97
2018-08-30T20:40:25.834Z,8.80
2018-08-30T20:42:53.137Z,8.73
2018-08-30T20:45:20.422Z,7.53
2018-08-30T20:47:47.776Z,8.20
2018-08-30T20:50:15.050Z,7.87
2018-08-30T20:52:42.414Z,7.80
2018-08-30T20:55:09.832Z,8.10
2018-08-30T20:57:37.165Z,8.60
2018-08-30T21:00:04.746Z,8.70
2018-08-30T21:02:32.019Z,8.43
2018-08-30T21:04:59.318Z,7.70
2018-08-30T21:07:26.695Z,8.10
2018-08-30T21:09:54.013Z,8.20
2018-08-30T21:12:21.255Z,8.60
2018-08-30T21:14:48.501Z,7.67
2018-08-30T21:17:15.737Z,8.43
2018-08-30T21:19:43.090Z,8.03
2018-08-30T21:22:10.449Z,7.73
2018-08-30T21:24:37.776Z,8.73
2018-08-30T21:27:05.239Z,7.17
2018-08-30T21:29:32.547Z,8.17
2018-08-30T21:31:59.819Z,8.80
2018-08-30T21:34:27.148Z,8.17
2018-08-30T21:36:54.481Z,8.70
2018-08-30T21:39:21.792Z,9.60
2018-08-30T21:41:49.120Z,9.10
2018-08-30T21:44:16.400Z,8.10
2018-08-30T21:46:43.734Z,6.87
2018-08-30T21:49:11.346Z,7.80
2018-08-30T21:51:38.738Z,7.87
2018-08-30T21:54:06.131Z,7.30
2018-08-30T21:56:33.461Z,7.40
2018-08-30T21:59:00.737Z,8.17
2018-08-30T22:01:28.019Z,8.20
2018-08-30T22:03:55.380Z,7.97
2018-08-30T22:06:22.737Z,8.60
2018-08-30T22:08:49.983Z,8.53
2018-08-30T22:11:17.382Z,8.33
2018-08-30T22:13:44.655Z,8.90
2018-08-30T22:16:11.868Z,7.10
2018-08-30T22:18:39.118Z,7.87
2018-08-30T22:21:06.443Z,8.50
2018-08-30T22:23:33.806Z,7.60
2018-08-30T22:26:01.270Z,7.67
2018-08-30T22:28:28.533Z,8.30
2018-08-30T22:30:55.805Z,7.97
2018-08-30T22:33:23.110Z,8.30
2018-08-30T22:35:50.406Z,9.20
2018-08-30T22:38:17.715Z,8.13
2018-08-30T22:40:45.009Z,8.10
2018-08-30T22:43:12.290Z,8.10
2018-08-30T22:45:39.540Z,8.23
2018-08-30T22:48:06.793Z,8.53
2018-08-30T22:50:34.888Z,8.67
2018-08-30T22:53:02.126Z,8.53
2018-08-30T22:55:29.451Z,8.30
2018-08-30T22:57:56.761Z,8.80
2018-08-30T23:00:24.106Z,8.67
2018-08-30T23:02:51.415Z,9.40
2018-08-30T23:05:19.419Z,9.47
2018-08-30T23:07:46.715Z,8.90
2018-08-30T23:10:14.098Z,8.13
2018-08-30T23:12:41.382Z,8.63
2018-08-30T23:15:08.664Z,8.03
2018-08-30T23:17:35.930Z,8.07
2018-08-30T23:20:03.473Z,9.33
2018-08-30T23:22:30.733Z,8.30
2018-08-30T23:24:58.063Z,9.57
2018-08-30T23:27:25.301Z,8.50
2018-08-30T23:29:52.659Z,8.50
2018-08-30T23:32:19.982Z,9.40
2018-08-30T23:34:47.498Z,8.43
2018-08-30T23:37:14.773Z,9.30
2018-08-30T23:39:42.068Z,9.60
2018-08-30T23:42:09.439Z,10.30
2018-08-30T23:44:36.703Z,10.73
2018-08-30T23:47:04.010Z,9.97
2018-08-30T23:49:31.310Z,9.87
2018-08-30T23:51:58.640Z,9.80
2018-08-30T23:54:25.949Z,10.10
2018-08-30T23:56:53.260Z,9.20
2018-08-30T23:59:32.076Z,11.13
